createdAt,value
2023-01-02T00:01:28.313Z,5.93
2023-01-02T00:03:59.561Z,5.89
2023-01-02T00:06:26.530Z,5.86
2023-01-02T00:08:53.678Z,5.86
2023-01-02T00:11:20.475Z,5.83
2023-01-02T00:13:49.570Z,5.82
2023-01-02T00:16:16.450Z,5.84
2023-01-02T00:18:43.566Z,5.78
2023-01-02T00:21:10.328Z,5.78
2023-01-02T00:23:37.710Z,5.73
2023-01-02T00:26:04.605Z,5.73
2023-01-02T00:28:31.997Z,5.73
2023-01-02T00:31:05.421Z,5.64
2023-01-02T00:33:32.485Z,5.63
2023-01-02T00:35:59.285Z,5.63
2023-01-02T00:38:26.344Z,5.54
2023-01-02T00:40:53.143Z,5.46
2023-01-02T00:43:20.285Z,5.43
2023-01-02T00:45:48.822Z,5.40
2023-01-02T00:48:15.881Z,5.44
2023-01-02T00:50:42.639Z,5.46
2023-01-02T00:53:09.672Z,5.59
2023-01-02T00:55:36.444Z,5.53
2023-01-02T00:58:03.799Z,5.46
2023-01-02T01:00:31.171Z,5.42
2023-01-02T01:02:59.758Z,5.37
2023-01-02T01:05:27.897Z,5.35
2023-01-02T01:07:56.308Z,5.32
2023-01-02T01:10:24.793Z,5.35
2023-01-02T01:12:52.401Z,5.33
2023-01-02T01:15:19.222Z,5.33
2023-01-02T01:17:46.270Z,5.32
2023-01-02T01:20:13.273Z,5.32
2023-01-02T01:22:40.336Z,5.34
2023-01-02T01:25:07.480Z,5.37
2023-01-02T01:27:34.539Z,5.42
2023-01-02T01:30:05.959Z,5.40
2023-01-02T01:32:33.383Z,5.41
2023-01-02T01:35:00.229Z,5.48
2023-01-02T01:37:27.297Z,5.55
2023-01-02T01:39:56.665Z,5.57
2023-01-02T01:42:23.987Z,5.63
2023-01-02T01:44:53.237Z,5.64
2023-01-02T01:47:40.994Z,5.71
2023-01-02T01:50:15.358Z,5.74
2023-01-02T01:52:49.721Z,5.74
2023-01-02T01:55:42.457Z,5.80
2023-01-02T01:58:13.420Z,5.82
2023-01-02T02:00:41.974Z,5.81
2023-01-02T02:03:14.099Z,5.81
2023-01-02T02:05:43.701Z,5.83
2023-01-02T02:08:15.739Z,5.83
2023-01-02T02:10:43.255Z,5.85
2023-01-02T02:13:10.461Z,5.88
2023-01-02T02:15:43.656Z,5.85
2023-01-02T02:18:21.283Z,5.86
2023-01-02T02:21:12.321Z,5.95
2023-01-02T02:23:42.209Z,5.96
2023-01-02T02:26:39.193Z,5.97
2023-01-02T02:29:43.794Z,5.97
2023-01-02T02:32:16.729Z,6.01
2023-01-02T02:35:04.579Z,5.99
2023-01-02T02:37:45.424Z,6.00
2023-01-02T02:40:49.365Z,6.00
2023-01-02T02:43:28.139Z,5.97
2023-01-02T02:46:01.075Z,5.98
2023-01-02T02:48:47.224Z,5.99
2023-01-02T02:51:39.329Z,5.96
2023-01-02T02:54:24.701Z,5.94
2023-01-02T02:56:53.917Z,5.96
2023-01-02T02:59:21.674Z,5.93
2023-01-02T03:01:48.830Z,5.99
2023-01-02T03:04:21.351Z,6.02
2023-01-02T03:07:21.838Z,5.97
2023-01-02T03:10:08.189Z,5.99
2023-01-02T03:12:44.141Z,5.94
2023-01-02T03:15:35.426Z,5.99
2023-01-02T03:18:20.903Z,5.95
2023-01-02T03:20:58.732Z,5.86
2023-01-02T03:23:29.069Z,5.90
2023-01-02T03:25:58.654Z,5.88
2023-01-02T03:28:27.053Z,5.90
2023-01-02T03:30:58.037Z,5.94
2023-01-02T03:33:29.932Z,5.95
2023-01-02T03:36:02.829Z,5.93
2023-01-02T03:38:47.340Z,5.92
2023-01-02T03:41:26.369Z,5.91
2023-01-02T03:43:57.359Z,5.97
2023-01-02T03:46:31.459Z,5.94
2023-01-02T03:49:02.361Z,5.99
2023-01-02T03:51:29.189Z,5.98
2023-01-02T03:53:57.426Z,5.99
2023-01-02T03:56:32.210Z,6.02
2023-01-02T03:59:17.485Z,6.08
2023-01-02T04:01:49.580Z,6.12
2023-01-02T04:04:55.428Z,6.10
2023-01-02T04:07:43.442Z,6.12
2023-01-02T04:10:14.165Z,6.16
2023-01-02T04:12:46.747Z,6.14
2023-01-02T04:15:17.284Z,6.16
2023-01-02T04:17:48.388Z,6.16
2023-01-02T04:20:28.024Z,6.16
2023-01-02T04:23:17.105Z,6.16
2023-01-02T04:26:00.450Z,6.17
2023-01-02T04:28:30.571Z,6.21
2023-01-02T04:31:06.853Z,6.23
2023-01-02T04:33:38.964Z,6.23
2023-01-02T04:36:14.244Z,6.22
2023-01-02T04:38:45.958Z,6.21
2023-01-02T04:41:27.416Z,6.21
2023-01-02T04:43:55.544Z,6.25
2023-01-02T04:46:23.921Z,6.22
2023-01-02T04:48:51.325Z,6.22
2023-01-02T04:51:18.690Z,6.19
2023-01-02T04:53:54.679Z,6.18
2023-01-02T04:56:22.211Z,6.16
2023-01-02T04:58:49.570Z,6.16
2023-01-02T05:01:18.791Z,6.20
2023-01-02T05:03:48.423Z,6.18
2023-01-02T05:06:16.485Z,6.15
2023-01-02T05:08:43.733Z,6.12
2023-01-02T05:11:17.828Z,6.13
2023-01-02T05:13:44.623Z,6.16
2023-01-02T05:16:12.201Z,6.13
2023-01-02T05:18:39.149Z,6.12
2023-01-02T05:21:31.739Z,6.17
2023-01-02T05:24:01.511Z,6.17
2023-01-02T05:26:30.799Z,6.22
2023-01-02T05:28:57.607Z,6.19
2023-01-02T05:31:25.146Z,6.19
2023-01-02T05:33:53.153Z,6.16
2023-01-02T05:36:21.515Z,6.14
2023-01-02T05:38:48.320Z,6.16
2023-01-02T05:41:15.992Z,6.13
2023-01-02T05:43:43.006Z,6.19
2023-01-02T05:46:14.715Z,6.17
2023-01-02T05:48:42.252Z,6.18
2023-01-02T05:51:11.549Z,6.17
2023-01-02T05:53:39.083Z,6.18
2023-01-02T05:56:17.966Z,6.18
2023-01-02T05:58:46.900Z,6.14
2023-01-02T06:01:19.646Z,6.12
2023-01-02T06:03:48.408Z,6.13
2023-01-02T06:06:16.913Z,6.12
2023-01-02T06:08:44.276Z,6.10
2023-01-02T06:11:11.796Z,6.15
2023-01-02T06:13:39.733Z,6.15
2023-01-02T06:16:08.661Z,6.17
2023-01-02T06:18:37.703Z,6.12
2023-01-02T06:21:10.819Z,6.12
2023-01-02T06:23:38.535Z,6.07
2023-01-02T06:26:20.089Z,6.07
2023-01-02T06:28:50.636Z,6.09
2023-01-02T06:31:20.716Z,6.12
2023-01-02T06:33:47.568Z,6.15
2023-01-02T06:36:17.346Z,6.13
2023-01-02T06:38:45.579Z,6.11
2023-01-02T06:41:14.065Z,6.14
2023-01-02T06:43:49.089Z,6.14
2023-01-02T06:46:18.767Z,6.20
2023-01-02T06:48:45.929Z,6.17
2023-01-02T06:51:18.724Z,6.18
2023-01-02T06:53:45.961Z,6.16
2023-01-02T06:56:16.575Z,6.17
2023-01-02T06:58:43.589Z,6.20
2023-01-02T07:01:14.246Z,6.24
2023-01-02T07:03:41.835Z,6.24
2023-01-02T07:06:14.885Z,6.26
2023-01-02T07:08:43.228Z,6.28
2023-01-02T07:11:16.399Z,6.28
2023-01-02T07:13:44.205Z,6.27
2023-01-02T07:16:14.263Z,6.37
2023-01-02T07:18:41.512Z,6.39
2023-01-02T07:21:09.942Z,6.39
2023-01-02T07:23:37.413Z,6.43
2023-01-02T07:26:06.397Z,6.42
2023-01-02T07:28:34.932Z,6.43
2023-01-02T07:31:15.665Z,6.43
2023-01-02T07:33:42.773Z,6.48
2023-01-02T07:36:15.242Z,6.46
2023-01-02T07:38:42.403Z,6.49
2023-01-02T07:41:15.399Z,6.48
2023-01-02T07:43:43.624Z,6.49
2023-01-02T07:46:10.919Z,6.63
2023-01-02T07:48:37.770Z,6.59
2023-01-02T07:51:06.444Z,6.51
2023-01-02T07:53:34.017Z,6.47
2023-01-02T07:56:02.236Z,6.43
2023-01-02T07:58:29.236Z,6.46
2023-01-02T08:01:03.269Z,6.51
2023-01-02T08:03:32.160Z,6.52
2023-01-02T08:06:10.343Z,6.53
2023-01-02T08:08:37.984Z,6.49
2023-01-02T08:11:10.573Z,6.49
2023-01-02T08:13:37.716Z,6.50
2023-01-02T08:16:05.984Z,6.51
2023-01-02T08:18:33.203Z,6.56
2023-01-02T08:21:00.341Z,6.56
2023-01-02T08:23:27.277Z,6.53
2023-01-02T08:26:01.161Z,6.58
2023-01-02T08:28:31.228Z,6.61
2023-01-02T08:30:58.787Z,6.62
2023-01-02T08:33:26.953Z,6.60
2023-01-02T08:35:54.117Z,6.69
2023-01-02T08:38:21.041Z,6.69
2023-01-02T08:40:48.118Z,6.67
2023-01-02T08:43:16.315Z,6.72
2023-01-02T08:45:43.589Z,6.80
2023-01-02T08:48:19.672Z,6.89
2023-01-02T08:50:49.723Z,6.89
2023-01-02T08:53:16.709Z,6.91
2023-01-02T08:55:43.809Z,6.93
2023-01-02T08:58:10.944Z,6.94
2023-01-02T09:00:38.010Z,7.00
2023-01-02T09:03:04.921Z,7.00
2023-01-02T09:05:32.148Z,7.05
2023-01-02T09:07:59.309Z,7.10
2023-01-02T09:10:26.408Z,7.18
2023-01-02T09:12:53.219Z,7.17
2023-01-02T09:15:23.238Z,7.22
2023-01-02T09:17:50.042Z,7.21
2023-01-02T09:20:17.196Z,7.27
2023-01-02T09:22:44.794Z,7.37
2023-01-02T09:25:12.085Z,7.48
2023-01-02T09:27:38.857Z,7.53
2023-01-02T09:30:06.509Z,7.55
2023-01-02T09:32:33.315Z,7.55
2023-01-02T09:35:00.660Z,7.62
2023-01-02T09:37:28.591Z,7.58
2023-01-02T09:39:55.716Z,7.57
2023-01-02T09:42:22.940Z,7.55
2023-01-02T09:44:54.956Z,7.61
2023-01-02T09:47:25.847Z,7.61
2023-01-02T09:49:57.811Z,7.59
2023-01-02T09:52:56.187Z,7.71
2023-01-02T09:55:43.126Z,7.74
2023-01-02T09:58:32.664Z,7.75
2023-01-02T10:01:00.092Z,7.72
2023-01-02T10:04:05.799Z,7.76
2023-01-02T10:06:41.333Z,7.71
2023-01-02T10:09:40.772Z,7.82
2023-01-02T10:12:32.776Z,7.76
2023-01-02T10:15:02.931Z,7.76
2023-01-02T10:17:37.484Z,7.74
2023-01-02T10:20:28.238Z,7.72
2023-01-02T10:23:21.571Z,7.74
2023-01-02T10:25:58.531Z,7.78
2023-01-02T10:28:46.183Z,7.84
2023-01-02T10:31:30.500Z,8.02
2023-01-02T10:34:00.351Z,8.04
2023-01-02T10:36:40.615Z,8.13
2023-01-02T10:39:12.993Z,8.16
2023-01-02T10:41:41.093Z,8.15
2023-01-02T10:44:25.327Z,8.20
2023-01-02T10:46:52.204Z,8.26
2023-01-02T10:49:20.896Z,8.20
2023-01-02T10:52:03.511Z,8.16
2023-01-02T10:54:30.587Z,8.24
2023-01-02T10:56:57.848Z,8.19
2023-01-02T10:59:27.874Z,8.28
2023-01-02T11:01:59.691Z,8.33
2023-01-02T11:04:30.370Z,8.37
2023-01-02T11:07:00.669Z,8.48
2023-01-02T11:09:31.139Z,8.50
2023-01-02T11:11:59.558Z,8.48
2023-01-02T11:14:33.909Z,8.51
2023-01-02T11:17:16.070Z,8.51
2023-01-02T11:19:46.404Z,8.60
2023-01-02T11:22:16.604Z,8.57
2023-01-02T11:25:00.868Z,8.54
2023-01-02T11:27:36.821Z,8.34
2023-01-02T11:30:07.732Z,8.55
2023-01-02T11:32:41.646Z,8.64
2023-01-02T11:35:33.736Z,8.77
2023-01-02T11:38:02.520Z,8.85
2023-01-02T11:40:32.096Z,8.79
2023-01-02T11:43:24.616Z,8.91
2023-01-02T11:45:53.124Z,9.08
2023-01-02T11:48:23.766Z,9.21
2023-01-02T11:50:51.124Z,9.41
2023-01-02T11:53:29.911Z,9.65
2023-01-02T11:56:04.955Z,9.75
2023-01-02T11:58:42.524Z,9.73
2023-01-02T12:01:27.529Z,9.76
2023-01-02T12:03:54.826Z,9.69
2023-01-02T12:06:25.727Z,9.63
2023-01-02T12:08:52.432Z,9.74
2023-01-02T12:11:38.034Z,9.81
2023-01-02T12:14:21.696Z,9.87
2023-01-02T12:17:07.059Z,9.87
2023-01-02T12:20:09.057Z,9.99
2023-01-02T12:23:06.039Z,9.96
2023-01-02T12:25:49.829Z,10.01
2023-01-02T12:28:49.488Z,10.00
2023-01-02T12:31:37.703Z,10.10
2023-01-02T12:34:16.976Z,10.05
2023-01-02T12:37:00.743Z,10.09
2023-01-02T12:39:27.653Z,10.08
2023-01-02T12:42:21.656Z,10.07
2023-01-02T12:44:53.709Z,10.11
2023-01-02T12:48:04.840Z,10.04
2023-01-02T12:50:50.204Z,10.04
2023-01-02T12:54:20.516Z,10.04
2023-01-02T12:57:00.390Z,9.95
2023-01-02T12:59:53.845Z,9.83
2023-01-02T13:02:45.678Z,9.89
2023-01-02T13:05:18.608Z,9.76
2023-01-02T13:08:00.365Z,9.81
2023-01-02T13:10:29.310Z,9.69
2023-01-02T13:12:58.157Z,9.69
2023-01-02T13:15:28.527Z,9.77
2023-01-02T13:18:11.319Z,9.84
2023-01-02T13:20:53.004Z,9.59
2023-01-02T13:23:39.964Z,9.39
2023-01-02T13:26:19.151Z,9.40
2023-01-02T13:28:56.159Z,9.42
2023-01-02T13:34:29.861Z,9.50
2023-01-02T13:37:01.427Z,9.43
2023-01-02T13:39:36.573Z,9.36
2023-01-02T13:42:23.536Z,9.39
2023-01-02T13:44:56.796Z,9.26
2023-01-02T13:47:37.571Z,9.18
2023-01-02T13:50:13.489Z,9.16
2023-01-02T13:52:41.005Z,9.19
2023-01-02T13:55:35.960Z,9.10
2023-01-02T13:58:18.242Z,8.98
2023-01-02T14:00:54.698Z,8.94
2023-01-02T14:03:25.206Z,8.92
2023-01-02T14:06:01.348Z,8.82
2023-01-02T14:08:31.754Z,8.75
2023-01-02T14:11:10.966Z,8.65
2023-01-02T14:13:47.236Z,8.50
2023-01-02T14:16:23.496Z,8.56
2023-01-02T14:19:04.283Z,8.49
2023-01-02T14:21:39.550Z,8.47
2023-01-02T14:24:17.560Z,8.62
2023-01-02T14:26:52.518Z,8.54
2023-01-02T14:29:20.741Z,8.47
2023-01-02T14:31:48.155Z,8.45
2023-01-02T14:34:24.005Z,8.47
2023-01-02T14:36:53.089Z,8.49
2023-01-02T14:39:22.856Z,8.47
2023-01-02T14:42:15.774Z,8.49
2023-01-02T14:44:47.265Z,8.53
2023-01-02T14:47:19.852Z,8.51
2023-01-02T14:49:56.772Z,8.49
2023-01-02T14:52:38.481Z,8.43
2023-01-02T14:55:16.532Z,8.36
2023-01-02T14:57:48.564Z,8.29
2023-01-02T15:00:27.151Z,8.17
2023-01-02T15:03:20.075Z,8.12
2023-01-02T15:05:57.313Z,8.02
2023-01-02T15:08:35.810Z,7.95
2023-01-02T15:11:23.459Z,7.86
2023-01-02T15:14:05.402Z,7.80
2023-01-02T15:16:41.700Z,7.71
2023-01-02T15:19:22.182Z,7.63
2023-01-02T15:21:49.609Z,7.62
2023-01-02T15:24:21.605Z,7.56
2023-01-02T15:26:49.380Z,7.46
2023-01-02T15:29:28.308Z,7.40
2023-01-02T15:31:58.260Z,7.32
2023-01-02T15:34:28.544Z,7.32
2023-01-02T15:37:03.780Z,7.28
2023-01-02T15:39:36.658Z,7.22
2023-01-02T15:42:11.864Z,7.18
2023-01-02T15:44:58.926Z,7.21
2023-01-02T15:47:28.966Z,7.19
2023-01-02T15:49:57.837Z,7.17
2023-01-02T15:52:30.609Z,7.13
2023-01-02T15:55:02.261Z,7.14
2023-01-02T15:57:32.382Z,7.11
2023-01-02T16:00:02.962Z,7.09
2023-01-02T16:02:43.070Z,7.13
2023-01-02T16:05:17.292Z,7.19
2023-01-02T16:07:59.568Z,7.26
2023-01-02T16:10:29.764Z,7.26
2023-01-02T16:13:28.505Z,7.25
2023-01-02T16:16:16.481Z,7.30
2023-01-02T16:18:50.811Z,7.31
2023-01-02T16:21:19.322Z,7.29
2023-01-02T16:23:54.976Z,7.37
2023-01-02T16:26:34.873Z,7.37
2023-01-02T16:29:02.152Z,7.34
2023-01-02T16:31:29.893Z,7.35
2023-01-02T16:34:25.934Z,7.38
2023-01-02T16:37:16.233Z,7.36
2023-01-02T16:39:50.674Z,7.38
2023-01-02T16:42:35.309Z,7.42
2023-01-02T16:45:02.680Z,7.40
2023-01-02T16:47:43.808Z,7.46
2023-01-02T16:50:22.468Z,7.40
2023-01-02T16:52:53.616Z,7.43
2023-01-02T16:55:23.058Z,7.41
2023-01-02T16:58:00.058Z,7.38
2023-01-02T17:00:27.356Z,7.34
2023-01-02T17:02:57.899Z,7.35
2023-01-02T17:06:01.319Z,7.32
2023-01-02T17:08:32.254Z,7.31
2023-01-02T17:11:03.640Z,7.16
2023-01-02T17:13:31.328Z,7.12
2023-01-02T17:15:58.658Z,7.09
2023-01-02T17:18:26.656Z,7.02
2023-01-02T17:20:56.691Z,7.01
2023-01-02T17:23:24.422Z,7.00
2023-01-02T17:25:54.056Z,6.98
2023-01-02T17:28:24.469Z,6.89
2023-01-02T17:30:54.412Z,6.90
2023-01-02T17:33:22.530Z,6.93
2023-01-02T17:35:50.997Z,6.86
2023-01-02T17:38:19.275Z,6.93
2023-01-02T17:40:46.595Z,6.91
2023-01-02T17:43:14.446Z,6.83
2023-01-02T17:45:42.750Z,6.84
2023-01-02T17:48:18.468Z,6.80
2023-01-02T17:50:53.333Z,6.75
2023-01-02T17:53:22.722Z,6.78
2023-01-02T17:56:20.592Z,6.74
2023-01-02T17:58:51.867Z,6.71
2023-01-02T18:01:21.462Z,6.72
2023-01-02T18:03:52.474Z,6.69
2023-01-02T18:06:19.729Z,6.72
2023-01-02T18:08:54.461Z,6.69
2023-01-02T18:11:22.560Z,6.69
2023-01-02T18:13:53.279Z,6.71
2023-01-02T18:16:35.113Z,6.64
2023-01-02T18:19:06.765Z,6.63
2023-01-02T18:21:34.669Z,6.61
2023-01-02T18:24:11.307Z,6.64
2023-01-02T18:26:38.807Z,6.62
2023-01-02T18:29:18.118Z,6.58
2023-01-02T18:31:47.634Z,6.59
2023-01-02T18:37:17.226Z,6.59
2023-01-02T18:39:45.998Z,6.60
2023-01-02T18:42:18.349Z,6.60
2023-01-02T18:44:49.744Z,6.60
2023-01-02T18:47:32.867Z,6.64
2023-01-02T18:50:15.755Z,6.63
2023-01-02T18:52:49.304Z,6.58
2023-01-02T18:55:28.714Z,6.52
2023-01-02T18:58:01.974Z,6.50
2023-01-02T19:00:35.013Z,6.53
2023-01-02T19:03:31.766Z,6.56
2023-01-02T19:06:02.066Z,6.63
2023-01-02T19:08:36.388Z,6.57
2023-01-02T19:11:41.713Z,6.53
2023-01-02T19:14:22.718Z,6.69
2023-01-02T19:17:18.542Z,6.61
2023-01-02T19:19:49.105Z,6.56
2023-01-02T19:22:22.366Z,6.60
2023-01-02T19:24:51.912Z,6.55
2023-01-02T19:27:33.878Z,6.53
2023-01-02T19:30:29.830Z,6.50
2023-01-02T19:33:36.432Z,6.53
2023-01-02T19:36:04.955Z,6.56
2023-01-02T19:38:35.107Z,6.60
2023-01-02T19:41:04.341Z,6.63
2023-01-02T19:43:36.760Z,6.66
2023-01-02T19:46:06.697Z,6.69
2023-01-02T19:48:34.462Z,6.70
2023-01-02T19:51:01.692Z,6.72
2023-01-02T19:53:29.385Z,6.74
2023-01-02T19:55:56.561Z,6.74
2023-01-02T19:58:24.271Z,6.77
2023-01-02T20:00:51.622Z,6.84
2023-01-02T20:03:21.443Z,6.72
2023-01-02T20:05:50.285Z,6.75
2023-01-02T20:08:18.123Z,6.73
2023-01-02T20:10:48.003Z,6.73
2023-01-02T20:13:15.669Z,6.74
2023-01-02T20:15:45.295Z,6.80
2023-01-02T20:18:17.916Z,6.76
2023-01-02T20:20:45.112Z,6.77
2023-01-02T20:23:12.805Z,6.85
2023-01-02T20:25:42.697Z,6.85
2023-01-02T20:28:19.421Z,6.91
2023-01-02T20:30:47.920Z,6.82
2023-01-02T20:33:15.664Z,6.86
2023-01-02T20:35:42.845Z,6.91
2023-01-02T20:38:10.489Z,6.92
2023-01-02T20:40:37.713Z,6.85
2023-01-02T20:43:08.196Z,6.89
2023-01-02T20:45:44.095Z,6.90
2023-01-02T20:48:11.760Z,6.89
2023-01-02T20:50:41.855Z,6.86
2023-01-02T20:53:09.637Z,6.96
2023-01-02T20:55:39.130Z,6.96
2023-01-02T20:58:07.548Z,6.99
2023-01-02T21:00:34.980Z,6.96
2023-01-02T21:03:03.877Z,6.99
2023-01-02T21:05:31.423Z,7.00
2023-01-02T21:08:00.897Z,7.00
2023-01-02T21:10:28.061Z,7.05
2023-01-02T21:13:07.751Z,7.06
2023-01-02T21:15:55.454Z,7.05
2023-01-02T21:18:25.784Z,7.08
2023-01-02T21:20:56.028Z,7.07
2023-01-02T21:23:25.472Z,7.07
2023-01-02T21:25:53.604Z,7.07
2023-01-02T21:28:22.486Z,7.11
2023-01-02T21:30:52.242Z,7.10
2023-01-02T21:33:24.526Z,7.13
2023-01-02T21:35:53.609Z,7.12
2023-01-02T21:38:22.571Z,7.12
2023-01-02T21:40:51.823Z,7.13
2023-01-02T21:43:20.727Z,7.14
2023-01-02T21:45:48.049Z,7.14
2023-01-02T21:48:15.575Z,7.14
2023-01-02T21:50:42.748Z,7.14
2023-01-02T21:53:10.418Z,7.14
2023-01-02T21:55:37.551Z,7.15
2023-01-02T21:58:14.010Z,7.12
2023-01-02T22:00:41.893Z,7.09
2023-01-02T22:03:10.115Z,7.10
2023-01-02T22:05:37.402Z,7.12
2023-01-02T22:08:05.035Z,7.13
2023-01-02T22:10:32.086Z,7.14
2023-01-02T22:12:59.242Z,7.16
2023-01-02T22:15:26.051Z,7.13
2023-01-02T22:17:53.130Z,7.13
2023-01-02T22:20:19.935Z,7.18
2023-01-02T22:22:47.032Z,7.16
2023-01-02T22:25:13.861Z,7.15
2023-01-02T22:27:41.781Z,7.19
2023-01-02T22:30:20.855Z,7.21
2023-01-02T22:32:49.068Z,7.23
2023-01-02T22:35:15.995Z,7.25
2023-01-02T22:37:43.163Z,7.24
2023-01-02T22:40:10.642Z,7.21
2023-01-02T22:43:04.951Z,7.21
2023-01-02T22:45:41.774Z,7.22
2023-01-02T22:48:22.435Z,7.23
2023-01-02T22:50:51.830Z,7.22
2023-01-02T22:53:21.119Z,7.25
2023-01-02T22:55:48.382Z,7.32
2023-01-02T22:58:16.146Z,7.30
2023-01-02T23:00:43.050Z,7.27
2023-01-02T23:03:15.221Z,7.27
2023-01-02T23:05:42.900Z,7.32
2023-01-02T23:08:10.095Z,7.28
2023-01-02T23:10:36.910Z,7.33
2023-01-02T23:13:04.135Z,7.27
2023-01-02T23:15:31.080Z,7.27
2023-01-02T23:18:16.929Z,7.28
2023-01-02T23:20:43.820Z,7.28
2023-01-02T23:23:10.973Z,7.34
2023-01-02T23:25:42.545Z,7.31
2023-01-02T23:28:10.038Z,7.29
2023-01-02T23:30:40.804Z,7.28
2023-01-02T23:33:07.868Z,7.31
2023-01-02T23:35:34.627Z,7.26
2023-01-02T23:38:01.715Z,7.29
2023-01-02T23:40:33.986Z,7.33
2023-01-02T23:43:01.497Z,7.32
2023-01-02T23:45:28.287Z,7.29
2023-01-02T23:47:55.362Z,7.28
2023-01-02T23:50:22.130Z,7.23
2023-01-02T23:52:49.196Z,7.24
2023-01-02T23:55:16.133Z,7.25
2023-01-02T23:57:44.337Z,7.27
